createdAt,value
2023-05-21T00:00:22.257Z,14.22
2023-05-21T00:02:48.935Z,14.23
2023-05-21T00:05:17.139Z,14.24
2023-05-21T00:07:44.394Z,14.25
2023-05-21T00:10:11.075Z,14.26
2023-05-21T00:12:37.532Z,14.27
2023-05-21T00:15:04.608Z,14.25
2023-05-21T00:17:31.068Z,14.23
2023-05-21T00:19:57.592Z,14.23
2023-05-21T00:22:24.125Z,14.23
2023-05-21T00:24:50.717Z,14.22
2023-05-21T00:27:17.461Z,14.20
2023-05-21T00:29:44.466Z,14.20
2023-05-21T00:32:11.186Z,14.19
2023-05-21T00:34:38.293Z,14.16
2023-05-21T00:37:05.000Z,14.15
2023-05-21T00:39:31.482Z,14.14
2023-05-21T00:41:57.986Z,14.13
2023-05-21T00:44:25.492Z,14.11
2023-05-21T00:46:53.862Z,14.10
2023-05-21T00:49:24.549Z,14.10
2023-05-21T00:51:51.944Z,14.07
2023-05-21T00:54:18.973Z,14.06
2023-05-21T00:56:46.628Z,14.04
2023-05-21T00:59:15.829Z,14.01
2023-05-21T01:01:45.501Z,14.01
2023-05-21T01:04:12.516Z,13.99
2023-05-21T01:06:39.018Z,13.98
2023-05-21T01:09:07.173Z,13.99
2023-05-21T01:11:43.675Z,14.00
2023-05-21T01:14:12.671Z,13.99
2023-05-21T01:16:42.392Z,13.98
2023-05-21T01:19:11.587Z,13.97
2023-05-21T01:21:44.865Z,13.94
2023-05-21T01:26:54.997Z,13.91
2023-05-21T01:29:21.781Z,13.89
2023-05-21T01:32:18.129Z,13.89
2023-05-21T01:34:58.255Z,13.91
2023-05-21T01:37:30.025Z,13.92
2023-05-21T01:40:03.891Z,13.92
2023-05-21T01:42:32.064Z,13.90
2023-05-21T01:45:00.651Z,13.90
2023-05-21T01:47:31.312Z,13.92
2023-05-21T01:49:59.683Z,13.89
2023-05-21T01:52:26.243Z,13.87
2023-05-21T01:54:54.372Z,13.87
2023-05-21T01:57:21.651Z,13.88
2023-05-21T01:59:48.167Z,13.89
2023-05-21T02:02:14.676Z,13.86
2023-05-21T02:04:41.382Z,13.82
2023-05-21T02:07:08.087Z,13.79
2023-05-21T02:09:34.597Z,13.78
2023-05-21T02:12:01.283Z,13.78
2023-05-21T02:14:27.707Z,13.75
2023-05-21T02:16:54.145Z,13.73
2023-05-21T02:19:20.702Z,13.69
2023-05-21T02:21:47.245Z,13.68
2023-05-21T02:24:14.064Z,13.66
2023-05-21T02:26:41.007Z,13.65
2023-05-21T02:29:07.438Z,13.65
2023-05-21T02:31:33.871Z,13.68
2023-05-21T02:34:00.911Z,13.69
2023-05-21T02:36:28.801Z,13.71
2023-05-21T02:38:57.924Z,13.70
2023-05-21T02:41:24.460Z,13.72
2023-05-21T02:43:51.134Z,13.70
2023-05-21T02:46:17.657Z,13.71
2023-05-21T02:48:44.123Z,13.71
2023-05-21T02:51:10.696Z,13.70
2023-05-21T02:53:37.133Z,13.69
2023-05-21T02:56:03.872Z,13.69
2023-05-21T02:58:30.827Z,13.70
2023-05-21T03:00:57.370Z,13.69
2023-05-21T03:03:24.017Z,13.68
2023-05-21T03:05:50.507Z,13.68
2023-05-21T03:08:17.032Z,13.67
2023-05-21T03:10:43.470Z,13.68
2023-05-21T03:13:10.117Z,13.65
2023-05-21T03:15:38.796Z,13.65
2023-05-21T03:18:05.444Z,13.65
2023-05-21T03:20:32.682Z,13.64
2023-05-21T03:23:00.460Z,13.61
2023-05-21T03:25:26.928Z,13.60
2023-05-21T03:27:53.426Z,13.59
2023-05-21T03:30:19.962Z,13.59
2023-05-21T03:32:47.685Z,13.58
2023-05-21T03:35:14.199Z,13.56
2023-05-21T03:37:40.630Z,13.55
2023-05-21T03:40:07.925Z,13.57
2023-05-21T03:42:34.501Z,13.55
2023-05-21T03:45:01.078Z,13.53
2023-05-21T03:47:27.598Z,13.53
2023-05-21T03:49:54.103Z,13.52
2023-05-21T03:52:20.740Z,13.52
2023-05-21T03:54:47.201Z,13.51
2023-05-21T03:57:13.669Z,13.51
2023-05-21T03:59:40.094Z,13.51
2023-05-21T04:02:06.554Z,13.52
2023-05-21T04:04:33.815Z,13.50
2023-05-21T04:07:00.932Z,13.51
2023-05-21T04:09:29.582Z,13.51
2023-05-21T04:11:56.078Z,13.53
2023-05-21T04:14:23.356Z,13.54
2023-05-21T04:16:49.919Z,13.55
2023-05-21T04:19:16.433Z,13.56
2023-05-21T04:21:44.932Z,13.57
2023-05-21T04:24:11.684Z,13.59
2023-05-21T04:26:38.214Z,13.58
2023-05-21T04:29:04.955Z,13.61
2023-05-21T04:31:32.501Z,13.59
2023-05-21T04:33:59.489Z,13.62
2023-05-21T04:36:29.027Z,13.64
2023-05-21T04:38:55.845Z,13.66
2023-05-21T04:41:22.394Z,13.69
2023-05-21T04:43:48.872Z,13.70
2023-05-21T04:46:15.441Z,13.71
2023-05-21T04:48:42.279Z,13.72
2023-05-21T04:51:08.875Z,13.74
2023-05-21T04:53:35.919Z,13.75
2023-05-21T04:56:03.150Z,13.77
2023-05-21T04:58:29.604Z,13.78
2023-05-21T05:00:56.087Z,13.80
2023-05-21T05:03:22.713Z,13.81
2023-05-21T05:05:49.229Z,13.82
2023-05-21T05:08:16.315Z,13.84
2023-05-21T05:10:42.913Z,13.87
2023-05-21T05:13:09.846Z,13.87
2023-05-21T05:15:36.681Z,13.94
2023-05-21T05:18:03.569Z,13.99
2023-05-21T05:20:30.053Z,14.02
2023-05-21T05:22:56.512Z,14.08
2023-05-21T05:25:23.631Z,14.14
2023-05-21T05:27:50.097Z,14.20
2023-05-21T05:30:17.030Z,14.26
2023-05-21T05:32:43.499Z,14.32
2023-05-21T05:35:10.391Z,14.40
2023-05-21T05:37:36.894Z,14.46
2023-05-21T05:40:04.583Z,14.55
2023-05-21T05:42:31.362Z,14.62
2023-05-21T05:44:57.848Z,14.69
2023-05-21T05:47:24.301Z,14.78
2023-05-21T05:49:51.243Z,14.84
2023-05-21T05:52:17.790Z,14.92
2023-05-21T05:54:44.205Z,14.95
2023-05-21T05:57:10.753Z,14.99
2023-05-21T05:59:37.228Z,15.03
2023-05-21T06:02:04.034Z,15.08
2023-05-21T06:04:30.603Z,15.12
2023-05-21T06:07:00.906Z,15.17
2023-05-21T06:09:30.422Z,15.21
2023-05-21T06:11:57.009Z,15.26
2023-05-21T06:14:23.477Z,15.32
2023-05-21T06:16:49.979Z,15.40
2023-05-21T06:19:16.480Z,15.43
2023-05-21T06:21:43.043Z,15.50
2023-05-21T06:24:09.485Z,15.54
2023-05-21T06:26:36.225Z,15.57
2023-05-21T06:29:03.824Z,15.56
2023-05-21T06:31:33.020Z,15.58
2023-05-21T06:36:29.810Z,15.56
2023-05-21T06:38:57.111Z,15.55
2023-05-21T06:41:23.789Z,15.47
2023-05-21T06:43:50.233Z,15.53
2023-05-21T06:46:16.711Z,15.56
2023-05-21T06:48:44.177Z,15.56
2023-05-21T06:51:10.636Z,15.59
2023-05-21T06:53:37.100Z,15.56
2023-05-21T06:56:03.724Z,15.57
2023-05-21T06:58:31.348Z,15.61
2023-05-21T07:00:59.005Z,15.66
2023-05-21T07:03:25.899Z,15.71
2023-05-21T07:05:53.182Z,15.77
2023-05-21T07:08:22.300Z,15.82
2023-05-21T07:10:49.768Z,15.87
2023-05-21T07:13:16.411Z,15.93
2023-05-21T07:15:42.882Z,16.00
2023-05-21T07:18:09.820Z,16.10
2023-05-21T07:20:36.388Z,16.08
2023-05-21T07:23:02.847Z,16.15
2023-05-21T07:25:29.267Z,16.20
2023-05-21T07:27:55.795Z,16.28
2023-05-21T07:30:22.438Z,16.36
2023-05-21T07:32:48.969Z,16.43
2023-05-21T07:35:15.564Z,16.51
2023-05-21T07:37:42.199Z,16.58
2023-05-21T07:40:09.079Z,16.64
2023-05-21T07:42:35.527Z,16.77
2023-05-21T07:45:02.392Z,16.84
2023-05-21T07:47:28.832Z,16.90
2023-05-21T07:49:55.458Z,16.96
2023-05-21T07:52:22.018Z,17.02
2023-05-21T07:54:48.525Z,17.12
2023-05-21T07:57:14.966Z,17.19
2023-05-21T07:59:41.431Z,17.18
2023-05-21T08:02:07.965Z,17.26
2023-05-21T08:04:34.551Z,17.30
2023-05-21T08:07:01.000Z,17.41
2023-05-21T08:09:27.445Z,17.47
2023-05-21T08:11:53.871Z,17.55
2023-05-21T08:14:20.374Z,17.55
2023-05-21T08:16:46.910Z,17.60
2023-05-21T08:19:13.513Z,17.62
2023-05-21T08:21:39.988Z,17.68
2023-05-21T08:24:07.077Z,17.71
2023-05-21T08:26:33.817Z,17.74
2023-05-21T08:29:00.731Z,17.83
2023-05-21T08:31:27.305Z,17.87
2023-05-21T08:33:56.318Z,17.92
2023-05-21T08:36:22.859Z,17.93
2023-05-21T08:38:49.302Z,18.02
2023-05-21T08:41:16.742Z,18.12
2023-05-21T08:43:48.051Z,18.21
2023-05-21T08:46:18.949Z,18.28
2023-05-21T08:48:47.052Z,18.35
2023-05-21T08:51:13.747Z,18.43
2023-05-21T08:53:40.461Z,18.56
2023-05-21T08:56:07.015Z,18.71
2023-05-21T08:58:33.925Z,18.88
2023-05-21T09:01:00.623Z,19.05
2023-05-21T09:03:29.224Z,19.21
2023-05-21T09:05:56.674Z,19.33
2023-05-21T09:08:29.563Z,19.46
2023-05-21T09:10:56.078Z,19.58
2023-05-21T09:13:25.477Z,19.62
2023-05-21T09:15:52.106Z,19.70
2023-05-21T09:18:18.562Z,19.73
2023-05-21T09:20:45.690Z,19.79
2023-05-21T09:23:16.770Z,19.89
2023-05-21T09:25:47.852Z,19.99
2023-05-21T09:28:16.108Z,20.04
2023-05-21T09:30:51.994Z,20.07
2023-05-21T09:33:31.618Z,20.10
2023-05-21T09:35:58.300Z,20.10
2023-05-21T09:38:26.206Z,20.18
2023-05-21T09:40:55.750Z,20.28
2023-05-21T09:43:22.287Z,20.32
2023-05-21T09:45:53.856Z,20.32
2023-05-21T09:48:56.153Z,20.35
2023-05-21T09:51:22.637Z,20.50
2023-05-21T09:53:53.492Z,20.49
2023-05-21T09:56:24.830Z,20.50
2023-05-21T09:58:54.700Z,20.62
2023-05-21T10:01:21.561Z,20.71
2023-05-21T10:03:53.923Z,20.83
2023-05-21T10:06:21.069Z,20.97
2023-05-21T10:08:51.920Z,21.07
2023-05-21T10:11:19.351Z,21.22
2023-05-21T10:13:52.999Z,21.38
2023-05-21T10:16:19.798Z,21.54
2023-05-21T10:18:47.121Z,21.66
2023-05-21T10:21:14.029Z,21.88
2023-05-21T10:23:42.705Z,21.92
2023-05-21T10:26:09.248Z,22.04
2023-05-21T10:28:36.770Z,22.14
2023-05-21T10:31:04.499Z,22.20
2023-05-21T10:33:32.082Z,22.28
2023-05-21T10:35:59.793Z,22.37
2023-05-21T10:38:27.837Z,22.49
2023-05-21T10:40:55.761Z,22.71
2023-05-21T10:43:38.035Z,22.91
2023-05-21T10:46:19.788Z,23.08
2023-05-21T10:49:13.923Z,23.22
2023-05-21T10:52:17.620Z,23.29
2023-05-21T10:54:54.341Z,23.38
2023-05-21T10:57:51.558Z,23.53
2023-05-21T11:00:21.109Z,23.57
2023-05-21T11:02:49.525Z,23.61
2023-05-21T11:05:16.015Z,23.74
2023-05-21T11:07:57.868Z,23.80
2023-05-21T11:10:30.133Z,23.86
2023-05-21T11:13:07.134Z,23.90
2023-05-21T11:16:05.126Z,23.95
2023-05-21T11:18:40.256Z,24.13
2023-05-21T11:21:10.199Z,24.34
2023-05-21T11:23:54.382Z,24.47
2023-05-21T11:26:26.227Z,24.66
2023-05-21T11:29:04.967Z,24.84
2023-05-21T11:31:39.343Z,24.93
2023-05-21T11:34:28.125Z,25.01
2023-05-21T11:37:16.100Z,25.08
2023-05-21T11:39:43.377Z,25.16
2023-05-21T11:42:10.048Z,25.23
2023-05-21T11:44:40.104Z,25.21
2023-05-21T11:47:07.992Z,25.12
2023-05-21T11:49:35.430Z,25.18
2023-05-21T11:52:03.019Z,25.36
2023-05-21T11:54:36.898Z,25.35
2023-05-21T11:57:07.257Z,25.43
2023-05-21T11:59:35.014Z,25.48
2023-05-21T12:02:02.267Z,25.55
2023-05-21T12:04:36.512Z,25.52
2023-05-21T12:07:09.746Z,25.61
2023-05-21T12:09:40.027Z,25.45
2023-05-21T12:12:09.406Z,25.43
2023-05-21T12:14:36.596Z,25.44
2023-05-21T12:17:04.465Z,25.34
2023-05-21T12:19:34.859Z,25.26
2023-05-21T12:22:05.434Z,25.14
2023-05-21T12:24:32.630Z,25.06
2023-05-21T12:27:03.759Z,25.09
2023-05-21T12:29:31.957Z,25.21
2023-05-21T12:32:02.765Z,25.26
2023-05-21T12:34:39.405Z,25.39
2023-05-21T12:37:07.896Z,25.54
2023-05-21T12:39:39.184Z,25.73
2023-05-21T12:42:07.002Z,25.78
2023-05-21T12:44:35.372Z,25.82
2023-05-21T12:47:03.561Z,25.87
2023-05-21T12:49:39.027Z,25.82
2023-05-21T12:52:09.255Z,25.80
2023-05-21T12:54:38.291Z,25.71
2023-05-21T12:57:08.739Z,25.64
2023-05-21T13:00:08.887Z,25.63
2023-05-21T13:02:40.018Z,25.64
2023-05-21T13:05:11.339Z,25.60
2023-05-21T13:07:39.561Z,25.77
2023-05-21T13:10:06.968Z,25.80
2023-05-21T13:12:34.309Z,25.93
2023-05-21T13:15:03.328Z,26.04
2023-05-21T13:17:29.831Z,26.04
2023-05-21T13:20:08.188Z,26.15
2023-05-21T13:22:36.738Z,26.22
2023-05-21T13:25:03.375Z,26.22
2023-05-21T13:27:29.844Z,26.36
2023-05-21T13:29:56.503Z,26.57
2023-05-21T13:32:23.120Z,26.83
2023-05-21T13:34:49.684Z,26.92
2023-05-21T13:37:16.184Z,26.88
2023-05-21T13:39:42.619Z,26.83
2023-05-21T13:42:09.126Z,26.90
2023-05-21T13:44:36.615Z,26.89
2023-05-21T13:47:04.128Z,26.89
2023-05-21T13:49:30.712Z,26.87
2023-05-21T13:51:58.186Z,26.98
2023-05-21T13:54:24.614Z,27.06
2023-05-21T13:56:51.146Z,27.21
2023-05-21T13:59:17.670Z,27.43
2023-05-21T14:01:48.053Z,27.58
2023-05-21T14:04:14.606Z,27.72
2023-05-21T14:06:41.195Z,27.78
2023-05-21T14:09:08.037Z,27.74
2023-05-21T14:11:35.082Z,27.85
2023-05-21T14:14:02.859Z,27.88
2023-05-21T14:16:29.354Z,27.97
2023-05-21T14:18:57.269Z,28.00
2023-05-21T14:21:24.406Z,27.92
2023-05-21T14:23:51.447Z,27.95
2023-05-21T14:26:18.196Z,28.06
2023-05-21T14:28:45.310Z,28.10
2023-05-21T14:31:12.433Z,28.11
2023-05-21T14:33:39.001Z,28.14
2023-05-21T14:36:05.772Z,28.16
2023-05-21T14:38:32.319Z,28.17
2023-05-21T14:40:58.814Z,28.40
2023-05-21T14:43:25.283Z,28.47
2023-05-21T14:45:51.850Z,28.62
2023-05-21T14:48:22.654Z,28.64
2023-05-21T14:50:51.103Z,28.51
2023-05-21T14:53:18.574Z,28.42
2023-05-21T14:55:45.731Z,28.41
2023-05-21T14:58:12.317Z,28.37
2023-05-21T15:00:38.832Z,28.26
2023-05-21T15:03:05.692Z,28.19
2023-05-21T15:05:32.314Z,28.20
2023-05-21T15:07:59.006Z,28.28
2023-05-21T15:10:27.022Z,28.25
2023-05-21T15:12:53.889Z,28.34
2023-05-21T15:15:23.263Z,28.40
2023-05-21T15:17:50.660Z,28.39
2023-05-21T15:20:17.812Z,28.32
2023-05-21T15:22:44.272Z,28.16
2023-05-21T15:25:10.810Z,28.05
2023-05-21T15:27:37.234Z,27.89
2023-05-21T15:30:04.740Z,27.68
2023-05-21T15:32:31.649Z,27.45
2023-05-21T15:34:58.201Z,27.36
2023-05-21T15:37:24.857Z,27.21
2023-05-21T15:39:51.416Z,27.25
2023-05-21T15:42:17.863Z,27.40
2023-05-21T15:44:44.371Z,27.72
2023-05-21T15:47:10.854Z,27.97
2023-05-21T15:49:37.349Z,28.35
2023-05-21T15:52:04.053Z,28.68
2023-05-21T15:54:30.639Z,28.87
2023-05-21T15:56:57.220Z,29.09
2023-05-21T15:59:25.646Z,29.30
2023-05-21T16:01:52.289Z,29.44
2023-05-21T16:04:21.507Z,29.61
2023-05-21T16:06:47.939Z,29.72
2023-05-21T16:09:17.348Z,29.78
2023-05-21T16:11:44.782Z,29.71
2023-05-21T16:14:12.361Z,29.49
2023-05-21T16:16:39.391Z,29.58
2023-05-21T16:19:06.254Z,29.55
2023-05-21T16:21:33.799Z,29.55
2023-05-21T16:24:00.559Z,29.62
2023-05-21T16:26:27.084Z,29.66
2023-05-21T16:28:53.570Z,29.67
2023-05-21T16:31:20.045Z,29.59
2023-05-21T16:33:46.486Z,29.42
2023-05-21T16:36:13.124Z,29.28
2023-05-21T16:38:39.804Z,29.07
2023-05-21T16:41:06.739Z,28.80
2023-05-21T16:43:33.213Z,28.50
2023-05-21T16:45:59.792Z,28.34
2023-05-21T16:48:26.328Z,28.08
2023-05-21T16:50:52.820Z,27.81
2023-05-21T16:53:19.361Z,27.65
2023-05-21T16:55:45.845Z,27.45
2023-05-21T16:58:13.588Z,27.22
2023-05-21T17:00:40.096Z,27.07
2023-05-21T17:03:06.780Z,26.94
2023-05-21T17:05:33.375Z,26.77
2023-05-21T17:07:59.888Z,26.60
2023-05-21T17:10:26.350Z,26.44
2023-05-21T17:12:52.820Z,26.31
2023-05-21T17:15:19.250Z,26.20
2023-05-21T17:17:45.832Z,26.09
2023-05-21T17:20:12.890Z,25.98
2023-05-21T17:22:39.379Z,25.95
2023-05-21T17:25:06.467Z,25.84
2023-05-21T17:27:32.970Z,25.74
2023-05-21T17:29:59.540Z,25.66
2023-05-21T17:32:26.018Z,25.67
2023-05-21T17:34:53.789Z,25.58
2023-05-21T17:37:20.267Z,25.61
2023-05-21T17:39:46.774Z,25.59
2023-05-21T17:42:13.260Z,25.61
2023-05-21T17:44:39.770Z,25.57
2023-05-21T17:47:06.854Z,25.52
2023-05-21T17:49:33.425Z,25.39
2023-05-21T17:52:00.690Z,25.27
2023-05-21T17:54:27.119Z,25.15
2023-05-21T17:56:53.554Z,25.09
2023-05-21T17:59:21.355Z,25.04
2023-05-21T18:01:47.825Z,24.92
2023-05-21T18:04:14.356Z,24.84
2023-05-21T18:06:40.870Z,24.79
2023-05-21T18:09:07.937Z,24.73
2023-05-21T18:11:34.600Z,24.68
2023-05-21T18:14:01.026Z,24.64
2023-05-21T18:16:30.173Z,24.58
2023-05-21T18:18:57.270Z,24.51
2023-05-21T18:21:26.111Z,24.41
2023-05-21T18:23:52.542Z,24.33
2023-05-21T18:26:20.469Z,24.28
2023-05-21T18:28:47.024Z,24.21
2023-05-21T18:31:13.481Z,24.14
2023-05-21T18:33:40.233Z,24.05
2023-05-21T18:36:06.876Z,24.01
2023-05-21T18:38:33.736Z,23.97
2023-05-21T18:41:01.589Z,23.92
2023-05-21T18:43:28.058Z,23.88
2023-05-21T18:45:54.576Z,23.86
2023-05-21T18:48:20.979Z,23.81
2023-05-21T18:50:47.408Z,23.80
2023-05-21T18:53:13.818Z,23.76
2023-05-21T18:55:40.265Z,23.75
2023-05-21T18:58:06.729Z,23.72
2023-05-21T19:00:34.591Z,23.70
2023-05-21T19:03:02.179Z,23.66
2023-05-21T19:05:29.443Z,23.63
2023-05-21T19:07:57.910Z,23.55
2023-05-21T19:10:25.730Z,23.51
2023-05-21T19:12:52.487Z,23.42
2023-05-21T19:15:18.946Z,23.39
2023-05-21T19:17:45.490Z,23.34
2023-05-21T19:20:22.853Z,23.27
2023-05-21T19:22:49.463Z,23.20
2023-05-21T19:25:15.995Z,23.11
2023-05-21T19:27:42.483Z,23.07
2023-05-21T19:30:09.501Z,23.00
2023-05-21T19:32:36.037Z,22.92
2023-05-21T19:35:04.564Z,22.87
2023-05-21T19:37:31.250Z,22.80
2023-05-21T19:39:57.742Z,22.75
2023-05-21T19:42:24.247Z,22.68
2023-05-21T19:44:50.791Z,22.61
2023-05-21T19:47:17.351Z,22.53
2023-05-21T19:49:43.852Z,22.43
2023-05-21T19:52:10.506Z,22.35
2023-05-21T19:54:36.963Z,22.23
2023-05-21T19:57:03.512Z,22.16
2023-05-21T19:59:29.988Z,22.10
2023-05-21T20:01:56.514Z,21.97
2023-05-21T20:04:23.082Z,21.87
2023-05-21T20:06:49.717Z,21.80
2023-05-21T20:09:17.987Z,21.67
2023-05-21T20:11:44.757Z,21.60
2023-05-21T20:14:11.356Z,21.53
2023-05-21T20:16:37.990Z,21.47
2023-05-21T20:19:04.581Z,21.40
2023-05-21T20:21:34.183Z,21.30
2023-05-21T20:24:00.692Z,21.22
2023-05-21T20:26:27.275Z,21.13
2023-05-21T20:28:54.099Z,21.06
2023-05-21T20:31:21.838Z,20.98
2023-05-21T20:33:50.421Z,20.92
2023-05-21T20:36:17.728Z,20.84
2023-05-21T20:38:45.397Z,20.78
2023-05-21T20:41:12.315Z,20.69
2023-05-21T20:43:39.021Z,20.64
2023-05-21T20:46:05.810Z,20.59
2023-05-21T20:48:32.456Z,20.53
2023-05-21T20:50:59.878Z,20.47
2023-05-21T20:53:26.791Z,20.38
2023-05-21T20:55:54.674Z,20.29
2023-05-21T20:58:23.778Z,20.23
2023-05-21T21:00:50.390Z,20.18
2023-05-21T21:03:18.034Z,20.12
2023-05-21T21:05:44.928Z,20.08
2023-05-21T21:08:12.244Z,20.03
2023-05-21T21:10:41.245Z,19.97
2023-05-21T21:13:08.242Z,19.92
2023-05-21T21:15:35.161Z,19.85
2023-05-21T21:18:01.773Z,19.78
2023-05-21T21:20:28.276Z,19.72
2023-05-21T21:22:54.803Z,19.67
2023-05-21T21:25:21.511Z,19.60
2023-05-21T21:27:47.945Z,19.56
2023-05-21T21:30:14.524Z,19.53
2023-05-21T21:32:41.238Z,19.45
2023-05-21T21:35:08.028Z,19.39
2023-05-21T21:37:34.601Z,19.35
2023-05-21T21:40:01.006Z,19.29
2023-05-21T21:42:27.577Z,19.25
2023-05-21T21:44:54.022Z,19.19
2023-05-21T21:47:20.593Z,19.14
2023-05-21T21:49:48.026Z,19.10
2023-05-21T21:52:14.677Z,19.05
2023-05-21T21:54:41.238Z,19.02
2023-05-21T21:57:07.832Z,18.96
2023-05-21T21:59:34.577Z,18.90
2023-05-21T22:02:01.212Z,18.87
2023-05-21T22:04:27.916Z,18.84
2023-05-21T22:06:54.486Z,18.81
2023-05-21T22:09:22.529Z,18.79
2023-05-21T22:11:49.303Z,18.76
2023-05-21T22:14:15.908Z,18.73
2023-05-21T22:16:43.191Z,18.68
2023-05-21T22:19:10.165Z,18.64
2023-05-21T22:21:36.833Z,18.59
2023-05-21T22:24:04.034Z,18.54
2023-05-21T22:26:30.540Z,18.49
2023-05-21T22:28:59.052Z,18.46
2023-05-21T22:31:26.664Z,18.44
2023-05-21T22:33:53.189Z,18.40
2023-05-21T22:36:19.617Z,18.37
2023-05-21T22:38:46.228Z,18.34
2023-05-21T22:41:12.730Z,18.31
2023-05-21T22:43:39.289Z,18.24
2023-05-21T22:46:05.810Z,18.19
2023-05-21T22:48:34.327Z,18.16
2023-05-21T22:51:01.606Z,18.14
2023-05-21T22:53:28.214Z,18.10
2023-05-21T22:55:54.645Z,18.08
2023-05-21T22:58:21.113Z,18.08
2023-05-21T23:00:47.998Z,18.05
2023-05-21T23:03:14.938Z,18.02
2023-05-21T23:05:41.459Z,17.99
2023-05-21T23:08:08.109Z,17.95
2023-05-21T23:10:35.552Z,17.92
2023-05-21T23:13:02.090Z,17.90
2023-05-21T23:15:29.550Z,17.84
2023-05-21T23:17:56.838Z,17.85
2023-05-21T23:20:24.559Z,17.82
2023-05-21T23:22:51.076Z,17.81
2023-05-21T23:25:17.809Z,17.77
2023-05-21T23:27:44.359Z,17.76
2023-05-21T23:30:11.975Z,17.74
2023-05-21T23:32:38.527Z,17.74
2023-05-21T23:35:05.492Z,17.70
2023-05-21T23:37:31.987Z,17.68
2023-05-21T23:39:58.556Z,17.63
2023-05-21T23:42:25.024Z,17.62
2023-05-21T23:44:51.496Z,17.58
2023-05-21T23:47:18.069Z,17.56
2023-05-21T23:49:44.580Z,17.52
2023-05-21T23:52:13.042Z,17.51
2023-05-21T23:54:39.490Z,17.50
2023-05-21T23:57:06.303Z,17.49
2023-05-21T23:59:32.822Z,17.47
